createdAt,value
2022-09-17T00:01:48.629Z,2.17
2022-09-17T00:04:16.658Z,3.13
2022-09-17T00:06:44.540Z,3.55
2022-09-17T00:09:12.595Z,2.20
2022-09-17T00:14:13.389Z,2.92
2022-09-17T00:16:43.759Z,3.92
2022-09-17T00:19:15.966Z,4.03
2022-09-17T00:21:44.317Z,3.33
2022-09-17T00:24:13.883Z,3.58
2022-09-17T00:26:42.700Z,3.53
2022-09-17T00:29:11.707Z,3.63
2022-09-17T00:31:40.433Z,3.97
2022-09-17T00:34:08.964Z,4.28
2022-09-17T00:36:39.858Z,4.00
2022-09-17T00:39:10.268Z,4.68
2022-09-17T00:41:39.371Z,5.00
2022-09-17T00:44:47.972Z,4.05
2022-09-17T00:47:24.573Z,3.67
2022-09-17T00:49:57.454Z,3.10
2022-09-17T00:52:31.774Z,4.68
2022-09-17T00:55:06.025Z,3.78
2022-09-17T00:57:34.433Z,5.22
2022-09-17T01:00:03.014Z,3.72
2022-09-17T01:02:31.017Z,3.97
2022-09-17T01:07:47.772Z,3.60
2022-09-17T01:10:27.542Z,3.40
2022-09-17T01:13:09.750Z,3.85
2022-09-17T01:15:42.919Z,3.85
2022-09-17T01:18:23.471Z,5.00
2022-09-17T01:21:43.676Z,3.95
2022-09-17T01:24:41.981Z,3.92
2022-09-17T01:27:55.010Z,4.10
2022-09-17T01:30:40.511Z,4.22
2022-09-17T01:33:17.416Z,3.85
2022-09-17T01:35:54.367Z,3.50
2022-09-17T01:38:29.169Z,4.80
2022-09-17T01:41:07.480Z,4.07
2022-09-17T01:43:39.197Z,3.70
2022-09-17T01:46:13.551Z,4.30
2022-09-17T01:48:46.119Z,4.60
2022-09-17T01:51:18.370Z,4.25
2022-09-17T01:53:52.358Z,4.05
2022-09-17T01:56:24.842Z,3.55
2022-09-17T01:58:59.028Z,4.30
2022-09-17T02:01:33.229Z,3.55
2022-09-17T02:04:06.355Z,4.88
2022-09-17T02:06:39.256Z,4.32
2022-09-17T02:09:15.364Z,4.82
2022-09-17T02:11:47.051Z,4.60
2022-09-17T02:14:18.966Z,4.28
2022-09-17T02:16:53.191Z,3.60
2022-09-17T02:19:25.885Z,4.00
2022-09-17T02:21:59.780Z,3.90
2022-09-17T02:24:32.103Z,4.57
2022-09-17T02:27:04.679Z,4.90
2022-09-17T02:29:35.853Z,3.40
2022-09-17T02:32:06.032Z,4.32
2022-09-17T02:34:34.608Z,4.70
2022-09-17T02:37:03.546Z,3.92
2022-09-17T02:39:31.989Z,4.00
2022-09-17T02:42:09.893Z,3.92
2022-09-17T02:44:46.632Z,3.40
2022-09-17T02:47:38.962Z,3.03
2022-09-17T02:50:18.440Z,3.17
2022-09-17T02:53:06.494Z,3.17
2022-09-17T02:55:41.848Z,3.10
2022-09-17T02:58:21.356Z,3.00
2022-09-17T03:00:49.719Z,3.50
2022-09-17T03:03:24.632Z,3.95
2022-09-17T03:05:54.272Z,3.95
2022-09-17T03:08:29.870Z,4.78
2022-09-17T03:10:58.053Z,2.75
2022-09-17T03:15:54.084Z,3.67
2022-09-17T03:20:51.581Z,3.45
2022-09-17T03:25:49.455Z,3.78
2022-09-17T03:28:17.494Z,3.45
2022-09-17T03:33:14.247Z,4.07
2022-09-17T03:35:45.518Z,3.78
2022-09-17T03:38:13.812Z,3.10
2022-09-17T03:40:42.307Z,4.47
2022-09-17T03:43:10.378Z,3.17
2022-09-17T03:48:06.149Z,3.50
2022-09-17T03:50:34.181Z,3.40
2022-09-17T03:53:03.390Z,5.50
2022-09-17T03:55:31.303Z,3.00
2022-09-17T03:57:59.203Z,3.25
2022-09-17T04:00:27.226Z,3.42
2022-09-17T04:02:55.310Z,3.13
2022-09-17T04:05:23.563Z,3.15
2022-09-17T04:07:51.429Z,3.58
2022-09-17T04:10:20.803Z,3.40
2022-09-17T04:12:48.696Z,3.70
2022-09-17T04:17:46.262Z,2.78
2022-09-17T04:22:42.710Z,3.03
2022-09-17T04:25:11.151Z,3.53
2022-09-17T04:27:40.626Z,3.67
2022-09-17T04:30:09.375Z,2.75
2022-09-17T04:32:37.283Z,2.42
2022-09-17T04:35:05.750Z,2.78
2022-09-17T04:37:34.085Z,2.80
2022-09-17T04:40:08.043Z,2.78
2022-09-17T04:42:36.381Z,2.58
2022-09-17T04:45:09.132Z,2.45
2022-09-17T04:47:40.344Z,2.15
2022-09-17T04:50:09.368Z,3.25
2022-09-17T04:52:37.678Z,3.85
2022-09-17T04:55:06.791Z,2.63
2022-09-17T04:57:35.782Z,2.05
2022-09-17T05:00:08.350Z,2.33
2022-09-17T05:02:37.876Z,2.08
2022-09-17T05:05:06.965Z,2.42
2022-09-17T05:07:34.921Z,2.45
2022-09-17T05:10:03.167Z,2.13
2022-09-17T05:12:34.427Z,2.53
2022-09-17T05:15:03.514Z,1.80
2022-09-17T05:17:33.178Z,2.05
2022-09-17T05:20:01.757Z,1.60
2022-09-17T05:22:29.769Z,2.33
2022-09-17T05:24:57.844Z,2.83
2022-09-17T05:27:25.784Z,2.63
2022-09-17T05:32:21.541Z,2.03
2022-09-17T05:34:51.104Z,1.88
2022-09-17T05:37:19.108Z,4.25
2022-09-17T05:42:20.915Z,4.25
2022-09-17T05:44:49.825Z,3.28
2022-09-17T05:47:18.839Z,4.90
2022-09-17T05:49:47.122Z,3.13
2022-09-17T05:52:16.784Z,3.22
2022-09-17T05:54:44.924Z,3.25
2022-09-17T05:57:13.123Z,2.50
2022-09-17T05:59:41.005Z,2.17
2022-09-17T06:02:09.054Z,2.90
2022-09-17T06:04:37.082Z,1.75
2022-09-17T06:07:08.504Z,2.13
2022-09-17T06:09:38.927Z,1.50
2022-09-17T06:12:07.701Z,2.00
2022-09-17T06:14:35.581Z,3.00
2022-09-17T06:17:03.540Z,3.17
2022-09-17T06:21:59.513Z,1.40
2022-09-17T06:24:27.855Z,1.67
2022-09-17T06:26:57.171Z,2.22
2022-09-17T06:29:25.098Z,1.83
2022-09-17T06:31:54.017Z,1.67
2022-09-17T06:34:22.083Z,2.38
2022-09-17T06:36:50.165Z,2.47
2022-09-17T06:39:18.088Z,1.75
2022-09-17T06:44:15.310Z,1.55
2022-09-17T06:46:44.159Z,1.75
2022-09-17T06:49:13.471Z,1.92
2022-09-17T06:51:41.453Z,1.67
2022-09-17T06:54:09.599Z,1.95
2022-09-17T06:56:38.109Z,1.63
2022-09-17T06:59:08.669Z,1.20
2022-09-17T07:01:38.061Z,2.10
2022-09-17T07:04:06.156Z,1.58
2022-09-17T07:09:02.821Z,1.55
2022-09-17T07:11:31.763Z,1.63
2022-09-17T07:14:00.260Z,2.38
2022-09-17T07:16:32.554Z,2.60
2022-09-17T07:19:02.066Z,1.67
2022-09-17T07:21:30.430Z,1.40
2022-09-17T07:23:58.738Z,1.75
2022-09-17T07:26:26.806Z,2.08
2022-09-17T07:28:55.209Z,1.63
2022-09-17T07:31:23.449Z,1.55
2022-09-17T07:33:51.611Z,2.03
2022-09-17T07:36:21.060Z,1.33
2022-09-17T07:38:49.076Z,1.80
2022-09-17T07:41:18.465Z,2.00
2022-09-17T07:43:46.805Z,2.00
2022-09-17T07:46:16.940Z,1.83
2022-09-17T07:48:44.988Z,2.63
2022-09-17T07:51:17.156Z,1.80
2022-09-17T07:53:47.728Z,2.53
2022-09-17T07:56:16.170Z,1.73
2022-09-17T07:58:44.080Z,1.85
2022-09-17T08:01:13.275Z,2.00
2022-09-17T08:03:41.197Z,2.63
2022-09-17T08:06:10.815Z,2.47
2022-09-17T08:08:40.295Z,2.13
2022-09-17T08:11:11.563Z,1.80
2022-09-17T08:13:42.058Z,2.20
2022-09-17T08:16:13.346Z,1.70
2022-09-17T08:18:42.010Z,2.13
2022-09-17T08:21:12.013Z,1.67
2022-09-17T08:23:41.826Z,1.77
2022-09-17T08:26:13.781Z,1.92
2022-09-17T08:28:45.785Z,1.92
2022-09-17T08:31:14.040Z,1.80
2022-09-17T08:33:42.455Z,1.40
2022-09-17T08:36:13.765Z,1.80
2022-09-17T08:38:42.693Z,1.90
2022-09-17T08:41:27.415Z,1.77
2022-09-17T08:44:08.854Z,1.77
2022-09-17T08:46:44.139Z,2.78
2022-09-17T08:49:31.215Z,1.70
2022-09-17T08:52:20.098Z,1.45
2022-09-17T08:54:55.290Z,1.58
2022-09-17T08:57:35.202Z,1.52
2022-09-17T09:00:10.838Z,2.33
2022-09-17T09:02:56.091Z,1.88
2022-09-17T09:05:33.159Z,1.73
2022-09-17T09:08:06.644Z,1.73
2022-09-17T09:10:46.079Z,1.67
2022-09-17T09:13:19.457Z,1.35
2022-09-17T09:15:54.473Z,1.50
2022-09-17T09:18:24.345Z,1.90
2022-09-17T09:20:55.531Z,1.42
2022-09-17T09:23:31.212Z,0.90
2022-09-17T09:26:08.280Z,1.65
2022-09-17T09:28:50.251Z,1.20
2022-09-17T09:31:35.548Z,1.65
2022-09-17T09:34:05.157Z,1.45
2022-09-17T09:36:34.988Z,1.33
2022-09-17T09:39:05.923Z,1.40
2022-09-17T09:41:40.982Z,0.90
2022-09-17T09:44:13.784Z,1.60
2022-09-17T09:46:59.759Z,1.20
2022-09-17T09:49:41.598Z,1.70
2022-09-17T09:52:21.106Z,1.52
2022-09-17T09:55:03.440Z,1.23
2022-09-17T09:57:43.286Z,1.33
2022-09-17T10:00:54.337Z,1.33
2022-09-17T10:03:42.087Z,1.20
2022-09-17T10:06:11.732Z,1.02
2022-09-17T10:08:41.581Z,1.13
2022-09-17T10:11:22.193Z,1.30
2022-09-17T10:13:50.525Z,1.05
2022-09-17T10:16:21.626Z,1.00
2022-09-17T10:18:51.290Z,0.95
2022-09-17T10:21:23.553Z,1.30
2022-09-17T10:23:52.032Z,1.00
2022-09-17T10:26:25.571Z,1.10
2022-09-17T10:28:56.498Z,1.58
2022-09-17T10:31:26.118Z,1.33
2022-09-17T10:33:58.431Z,1.13
2022-09-17T10:36:42.045Z,1.10
2022-09-17T10:39:34.166Z,1.15
2022-09-17T10:42:04.200Z,0.90
2022-09-17T10:44:35.188Z,1.08
2022-09-17T10:47:07.407Z,1.00
2022-09-17T10:49:39.897Z,0.63
2022-09-17T10:52:24.191Z,0.90
2022-09-17T10:55:05.565Z,0.80
2022-09-17T10:57:47.982Z,1.13
2022-09-17T11:00:19.882Z,0.93
2022-09-17T11:03:25.279Z,0.88
2022-09-17T11:06:14.328Z,0.75
2022-09-17T11:08:51.073Z,0.65
2022-09-17T11:11:30.844Z,0.80
2022-09-17T11:14:09.041Z,0.95
2022-09-17T11:19:23.507Z,0.95
2022-09-17T11:22:01.511Z,1.02
2022-09-17T11:24:50.434Z,1.45
2022-09-17T11:27:33.257Z,1.00
2022-09-17T11:30:11.086Z,1.00
2022-09-17T11:33:18.578Z,0.63
2022-09-17T11:35:52.765Z,0.80
2022-09-17T11:38:25.869Z,0.80
2022-09-17T11:41:02.684Z,1.10
2022-09-17T11:43:34.223Z,0.88
2022-09-17T11:46:09.518Z,1.00
2022-09-17T11:48:46.441Z,1.15
2022-09-17T11:51:31.263Z,1.15
2022-09-17T11:54:07.564Z,1.08
2022-09-17T11:56:40.091Z,0.85
2022-09-17T11:59:18.411Z,1.20
2022-09-17T12:01:53.849Z,0.60
2022-09-17T12:04:40.533Z,0.90
2022-09-17T12:07:22.878Z,0.82
2022-09-17T12:09:54.849Z,1.15
2022-09-17T12:12:48.276Z,0.60
2022-09-17T12:15:19.489Z,0.70
2022-09-17T12:18:08.752Z,0.80
2022-09-17T12:20:46.367Z,0.85
2022-09-17T12:23:19.445Z,0.70
2022-09-17T12:25:53.821Z,1.05
2022-09-17T12:28:28.525Z,0.77
2022-09-17T12:31:07.054Z,0.75
2022-09-17T12:33:40.189Z,0.95
2022-09-17T12:36:37.557Z,1.35
2022-09-17T12:39:47.669Z,0.93
2022-09-17T12:42:31.231Z,1.10
2022-09-17T12:45:19.117Z,1.23
2022-09-17T12:48:19.546Z,1.00
2022-09-17T12:50:59.287Z,0.88
2022-09-17T12:53:31.396Z,1.13
2022-09-17T12:56:22.587Z,1.17
2022-09-17T12:59:05.316Z,0.88
2022-09-17T13:01:41.001Z,0.90
2022-09-17T13:04:38.174Z,1.10
2022-09-17T13:07:33.414Z,0.95
2022-09-17T13:10:12.605Z,1.00
2022-09-17T13:12:46.854Z,0.90
2022-09-17T13:15:43.755Z,1.10
2022-09-17T13:18:26.608Z,1.17
2022-09-17T13:21:14.049Z,1.00
2022-09-17T13:23:44.678Z,0.80
2022-09-17T13:26:16.977Z,0.80
2022-09-17T13:28:47.780Z,0.88
2022-09-17T13:31:23.420Z,0.70
2022-09-17T13:33:59.517Z,1.05
2022-09-17T13:36:42.515Z,0.90
2022-09-17T13:39:31.847Z,1.05
2022-09-17T13:42:06.189Z,1.45
2022-09-17T13:44:36.417Z,0.93
2022-09-17T13:47:16.174Z,0.98
2022-09-17T13:49:49.417Z,0.80
2022-09-17T13:52:34.757Z,1.02
2022-09-17T13:55:04.152Z,1.88
2022-09-17T13:57:35.267Z,1.13
2022-09-17T14:00:03.676Z,1.38
2022-09-17T14:02:39.088Z,1.20
2022-09-17T14:05:40.644Z,1.10
2022-09-17T14:08:49.632Z,1.13
2022-09-17T14:11:38.687Z,1.45
2022-09-17T14:16:53.060Z,1.80
2022-09-17T14:22:17.503Z,1.35
2022-09-17T14:24:51.171Z,1.80
2022-09-17T14:27:50.070Z,1.60
2022-09-17T14:30:21.075Z,1.20
2022-09-17T14:32:54.974Z,0.80
2022-09-17T14:35:27.400Z,1.20
2022-09-17T14:38:01.086Z,1.17
2022-09-17T14:40:31.295Z,0.85
2022-09-17T14:42:59.891Z,1.17
2022-09-17T14:45:33.737Z,1.08
2022-09-17T14:48:27.916Z,1.70
2022-09-17T14:51:24.947Z,1.20
2022-09-17T14:56:59.769Z,1.10
2022-09-17T14:59:42.718Z,1.17
2022-09-17T15:02:30.069Z,0.85
2022-09-17T15:04:58.649Z,0.80
2022-09-17T15:07:27.502Z,1.30
2022-09-17T15:09:56.087Z,1.10
2022-09-17T15:12:30.339Z,1.33
2022-09-17T15:14:59.076Z,0.98
2022-09-17T15:17:27.080Z,1.23
2022-09-17T15:19:58.306Z,1.35
2022-09-17T15:22:28.958Z,1.42
2022-09-17T15:25:00.880Z,1.70
2022-09-17T15:27:32.858Z,1.25
2022-09-17T15:30:05.115Z,1.60
2022-09-17T15:32:34.317Z,1.38
2022-09-17T15:35:28.177Z,1.30
2022-09-17T15:38:21.888Z,1.40
2022-09-17T15:40:47.015Z,1.83
2022-09-17T15:43:19.603Z,1.75
2022-09-17T15:45:47.690Z,1.52
2022-09-17T15:50:53.062Z,1.60
2022-09-17T15:53:26.014Z,0.85
2022-09-17T15:56:06.154Z,1.05
2022-09-17T15:58:52.607Z,1.20
2022-09-17T16:01:53.555Z,1.52
2022-09-17T16:04:30.647Z,1.27
2022-09-17T16:07:19.089Z,1.50
2022-09-17T16:09:49.888Z,1.30
2022-09-17T16:12:21.204Z,1.50
2022-09-17T16:14:53.282Z,1.08
2022-09-17T16:17:25.694Z,2.33
2022-09-17T16:19:54.809Z,2.50
2022-09-17T16:22:23.236Z,1.92
2022-09-17T16:24:51.295Z,1.90
2022-09-17T16:27:22.104Z,2.20
2022-09-17T16:29:53.198Z,1.73
2022-09-17T16:32:21.396Z,2.50
2022-09-17T16:34:49.260Z,3.05
2022-09-17T16:37:17.133Z,2.08
2022-09-17T16:39:45.054Z,1.90
2022-09-17T16:42:13.169Z,2.35
2022-09-17T16:47:10.140Z,2.60
2022-09-17T16:49:38.120Z,3.00
2022-09-17T16:54:33.993Z,3.00
2022-09-17T16:57:02.025Z,3.00
2022-09-17T17:01:57.749Z,2.80
2022-09-17T17:06:54.947Z,4.50
2022-09-17T17:09:22.844Z,4.10
2022-09-17T17:11:51.708Z,3.40
2022-09-17T17:14:19.851Z,3.15
2022-09-17T17:16:47.975Z,2.47
2022-09-17T17:19:16.095Z,3.25
2022-09-17T17:24:15.442Z,2.83
2022-09-17T17:29:11.320Z,2.05
2022-09-17T17:31:39.508Z,2.00
2022-09-17T17:36:35.654Z,2.38
2022-09-17T17:39:05.063Z,3.53
2022-09-17T17:41:32.979Z,1.88
2022-09-17T17:46:28.907Z,2.60
2022-09-17T17:51:25.275Z,3.13
2022-09-17T17:53:53.165Z,3.30
2022-09-17T17:58:54.917Z,1.70
2022-09-17T18:01:25.158Z,1.45
2022-09-17T18:03:57.268Z,1.65
2022-09-17T18:06:25.768Z,1.63
2022-09-17T18:08:54.520Z,1.90
2022-09-17T18:11:24.399Z,2.08
2022-09-17T18:13:53.241Z,1.90
2022-09-17T18:16:22.196Z,2.00
2022-09-17T18:18:50.915Z,1.15
2022-09-17T18:21:20.709Z,1.75
2022-09-17T18:23:49.555Z,3.10
2022-09-17T18:26:19.159Z,3.40
2022-09-17T18:28:48.939Z,3.22
2022-09-17T18:31:22.581Z,4.13
2022-09-17T18:33:51.631Z,3.85
2022-09-17T18:36:19.544Z,2.80
2022-09-17T18:38:47.477Z,2.28
2022-09-17T18:41:15.430Z,2.13
2022-09-17T18:46:12.777Z,1.83
2022-09-17T18:48:41.133Z,1.80
2022-09-17T18:51:12.245Z,1.80
2022-09-17T18:53:40.683Z,1.50
2022-09-17T18:56:15.319Z,2.03
2022-09-17T18:58:43.517Z,2.28
2022-09-17T19:06:11.343Z,2.00
2022-09-17T19:08:40.094Z,2.17
2022-09-17T19:11:08.771Z,2.95
2022-09-17T19:13:38.723Z,2.55
2022-09-17T19:16:07.597Z,2.15
2022-09-17T19:18:39.186Z,2.50
2022-09-17T19:21:09.586Z,1.88
2022-09-17T19:23:41.896Z,2.17
2022-09-17T19:26:11.354Z,1.85
2022-09-17T19:28:39.916Z,2.42
2022-09-17T19:31:09.348Z,2.50
2022-09-17T19:33:39.262Z,3.08
2022-09-17T19:36:09.461Z,1.75
2022-09-17T19:38:39.403Z,3.50
2022-09-17T19:41:11.933Z,2.70
2022-09-17T19:43:40.568Z,2.47
2022-09-17T19:46:11.482Z,2.03
2022-09-17T19:48:46.376Z,1.88
2022-09-17T19:51:15.042Z,2.22
2022-09-17T19:53:43.747Z,1.95
2022-09-17T19:56:13.989Z,2.30
2022-09-17T19:58:42.392Z,2.15
2022-09-17T20:01:11.104Z,2.10
2022-09-17T20:03:40.753Z,2.05
2022-09-17T20:06:12.083Z,3.30
2022-09-17T20:08:47.017Z,2.13
2022-09-17T20:11:16.910Z,2.63
2022-09-17T20:13:45.651Z,2.83
2022-09-17T20:16:16.762Z,2.50
2022-09-17T20:18:45.012Z,2.75
2022-09-17T20:21:16.428Z,2.22
2022-09-17T20:23:45.048Z,2.30
2022-09-17T20:26:14.125Z,1.98
2022-09-17T20:28:42.363Z,2.22
2022-09-17T20:31:13.557Z,1.92
2022-09-17T20:33:42.281Z,1.92
2022-09-17T20:36:15.078Z,2.10
2022-09-17T20:41:32.225Z,2.80
2022-09-17T20:44:00.583Z,3.25
2022-09-17T20:46:29.841Z,2.50
2022-09-17T20:48:58.577Z,2.33
2022-09-17T20:51:30.385Z,2.53
2022-09-17T20:53:58.719Z,2.38
2022-09-17T20:56:28.675Z,2.00
2022-09-17T20:59:04.000Z,2.03
2022-09-17T21:01:34.402Z,2.10
2022-09-17T21:04:03.591Z,2.40
2022-09-17T21:06:35.533Z,2.17
2022-09-17T21:09:03.821Z,2.00
2022-09-17T21:11:32.011Z,2.15
2022-09-17T21:14:01.304Z,1.80
2022-09-17T21:16:29.560Z,2.15
2022-09-17T21:18:58.202Z,2.10
2022-09-17T21:21:26.950Z,1.90
2022-09-17T21:24:01.260Z,2.60
2022-09-17T21:26:29.732Z,2.00
2022-09-17T21:28:58.247Z,1.55
2022-09-17T21:31:32.046Z,1.60
2022-09-17T21:34:02.311Z,1.85
2022-09-17T21:36:32.678Z,1.90
2022-09-17T21:39:04.364Z,1.50
2022-09-17T21:41:32.960Z,1.77
2022-09-17T21:44:01.099Z,1.88
2022-09-17T21:46:32.931Z,1.67
2022-09-17T21:49:02.557Z,1.95
2022-09-17T21:51:31.920Z,1.65
2022-09-17T21:54:03.146Z,2.30
2022-09-17T21:56:31.833Z,2.28
2022-09-17T21:59:01.790Z,1.75
2022-09-17T22:01:32.639Z,1.38
2022-09-17T22:04:01.933Z,1.20
2022-09-17T22:06:31.811Z,2.10
2022-09-17T22:09:02.615Z,1.58
2022-09-17T22:11:32.535Z,1.60
2022-09-17T22:14:04.904Z,1.45
2022-09-17T22:16:35.910Z,1.65
2022-09-17T22:19:04.768Z,1.58
2022-09-17T22:21:34.726Z,1.60
2022-09-17T22:24:07.135Z,2.00
2022-09-17T22:26:38.222Z,1.30
2022-09-17T22:29:09.274Z,1.80
2022-09-17T22:31:37.470Z,1.80
2022-09-17T22:34:08.130Z,1.42
2022-09-17T22:36:37.148Z,1.70
2022-09-17T22:39:10.462Z,2.60
2022-09-17T22:41:45.233Z,1.67
2022-09-17T22:44:15.605Z,1.65
2022-09-17T22:46:43.784Z,2.33
2022-09-17T22:49:12.206Z,2.20
2022-09-17T22:51:41.116Z,2.33
2022-09-17T22:54:12.990Z,2.15
2022-09-17T22:56:41.978Z,1.92
2022-09-17T22:59:09.968Z,1.88
2022-09-17T23:04:06.658Z,1.90
2022-09-17T23:06:36.164Z,2.55
2022-09-17T23:09:05.028Z,1.70
2022-09-17T23:11:36.763Z,2.08
2022-09-17T23:14:07.043Z,1.85
2022-09-17T23:16:36.793Z,1.88
2022-09-17T23:19:05.205Z,1.45
2022-09-17T23:21:33.486Z,2.15
2022-09-17T23:24:01.781Z,1.65
2022-09-17T23:26:30.023Z,1.35
2022-09-17T23:29:04.390Z,1.90
2022-09-17T23:31:34.612Z,2.05
2022-09-17T23:34:03.619Z,1.63
2022-09-17T23:36:33.578Z,1.80
2022-09-17T23:39:02.732Z,1.45
2022-09-17T23:41:32.348Z,1.90
2022-09-17T23:44:03.960Z,2.00
2022-09-17T23:46:34.787Z,1.85
2022-09-17T23:49:03.531Z,1.52
2022-09-17T23:51:34.628Z,2.05
2022-09-17T23:54:02.782Z,2.40
2022-09-17T23:56:30.768Z,2.03
2022-09-17T23:59:02.463Z,2.13
